createdAt,value
2019-03-15T00:00:17.906Z,89.34
2019-03-15T00:02:47.453Z,89.34
2019-03-15T00:07:54.287Z,88.93
2019-03-15T00:10:24.412Z,88.80
2019-03-15T00:12:53.881Z,88.26
2019-03-15T00:15:23.954Z,87.99
2019-03-15T00:17:53.683Z,87.68
2019-03-15T00:20:23.709Z,86.68
2019-03-15T00:22:54.346Z,87.66
2019-03-15T00:25:24.589Z,87.54
2019-03-15T00:27:54.397Z,88.59
2019-03-15T00:30:24.308Z,88.22
2019-03-15T00:32:54.058Z,88.30
2019-03-15T00:35:24.193Z,87.93
2019-03-15T00:38:02.288Z,87.96
2019-03-15T00:40:32.524Z,87.68
2019-03-15T00:43:02.353Z,87.46
2019-03-15T00:48:20.296Z,87.83
2019-03-15T00:50:49.800Z,87.29
2019-03-15T00:53:19.677Z,87.52
2019-03-15T00:55:49.226Z,87.63
2019-03-15T00:58:19.707Z,87.45
2019-03-15T01:00:49.707Z,87.78
2019-03-15T01:03:19.324Z,88.18
2019-03-15T01:05:50.014Z,88.36
2019-03-15T01:08:19.900Z,88.03
2019-03-15T01:10:50.711Z,88.09
2019-03-15T01:13:21.154Z,88.49
2019-03-15T01:15:50.849Z,88.73
2019-03-15T01:18:20.452Z,88.58
2019-03-15T01:20:50.327Z,88.12
2019-03-15T01:23:20.234Z,87.87
2019-03-15T01:25:49.928Z,87.79
2019-03-15T01:28:19.643Z,88.16
2019-03-15T01:30:49.574Z,87.83
2019-03-15T01:33:19.629Z,87.99
2019-03-15T01:35:50.072Z,87.55
2019-03-15T01:38:19.808Z,86.25
2019-03-15T01:40:50.171Z,86.08
2019-03-15T01:43:20.070Z,86.59
2019-03-15T01:45:50.088Z,85.52
2019-03-15T01:48:20.503Z,84.69
2019-03-15T01:50:50.574Z,83.42
2019-03-15T01:53:23.464Z,83.25
2019-03-15T01:55:54.090Z,83.09
2019-03-15T01:58:23.903Z,83.30
2019-03-15T02:00:53.787Z,84.03
2019-03-15T02:03:23.803Z,83.69
2019-03-15T02:05:56.713Z,83.27
2019-03-15T02:08:27.514Z,82.65
2019-03-15T02:10:58.317Z,81.63
2019-03-15T02:13:29.093Z,80.50
2019-03-15T02:16:00.354Z,78.54
2019-03-15T02:18:30.694Z,78.02
2019-03-15T02:21:01.739Z,78.18
2019-03-15T02:23:32.226Z,78.65
2019-03-15T02:26:03.617Z,79.37
2019-03-15T02:31:10.549Z,79.17
2019-03-15T02:33:42.612Z,79.46
2019-03-15T02:36:13.945Z,79.41
2019-03-15T02:38:45.910Z,79.19
2019-03-15T02:41:17.794Z,78.74
2019-03-15T02:43:47.954Z,78.69
2019-03-15T02:46:21.638Z,78.44
2019-03-15T02:48:55.531Z,76.85
2019-03-15T02:51:28.947Z,76.02
2019-03-15T02:54:01.130Z,74.81
2019-03-15T02:56:32.307Z,74.38
2019-03-15T02:59:06.836Z,73.15
2019-03-15T03:01:37.831Z,73.14
2019-03-15T03:04:11.149Z,72.35
2019-03-15T03:06:43.761Z,71.77
2019-03-15T03:09:16.167Z,71.36
2019-03-15T03:11:50.328Z,71.94
2019-03-15T03:14:21.691Z,72.25
2019-03-15T03:16:59.475Z,71.75
2019-03-15T03:19:32.716Z,71.41
2019-03-15T03:22:04.821Z,71.49
2019-03-15T03:24:39.040Z,71.49
2019-03-15T03:27:14.319Z,69.83
2019-03-15T03:29:50.053Z,70.10
2019-03-15T03:32:21.701Z,69.71
2019-03-15T03:34:55.103Z,69.22
2019-03-15T03:37:28.465Z,67.95
2019-03-15T03:40:02.355Z,67.98
2019-03-15T03:42:33.884Z,65.32
2019-03-15T03:45:05.280Z,66.04
2019-03-15T03:47:38.809Z,63.08
2019-03-15T03:50:12.246Z,64.86
2019-03-15T03:52:45.808Z,58.45
2019-03-15T03:55:19.327Z,60.29
2019-03-15T03:57:55.541Z,58.83
2019-03-15T04:00:27.092Z,59.55
2019-03-15T04:02:59.172Z,59.59
2019-03-15T04:08:10.148Z,59.82
2019-03-15T04:10:43.855Z,58.65
2019-03-15T04:13:14.849Z,60.80
2019-03-15T04:15:47.580Z,60.77
2019-03-15T04:18:19.395Z,61.84
2019-03-15T04:20:54.848Z,61.47
2019-03-15T04:23:26.432Z,61.03
2019-03-15T04:25:58.398Z,62.00
2019-03-15T04:28:30.511Z,57.93
2019-03-15T04:31:00.503Z,56.70
2019-03-15T04:33:30.832Z,55.95
2019-03-15T04:36:00.952Z,54.43
2019-03-15T04:38:31.015Z,55.90
2019-03-15T04:41:00.809Z,54.13
2019-03-15T04:43:30.399Z,54.63
2019-03-15T04:46:00.376Z,54.35
2019-03-15T04:48:32.986Z,52.79
2019-03-15T04:51:02.904Z,54.06
2019-03-15T04:53:32.659Z,52.36
2019-03-15T04:56:02.566Z,52.17
2019-03-15T04:58:32.370Z,51.52
2019-03-15T05:01:02.477Z,51.50
2019-03-15T05:03:32.748Z,50.30
2019-03-15T05:06:04.911Z,50.51
2019-03-15T05:08:35.591Z,49.76
2019-03-15T05:11:05.583Z,51.72
2019-03-15T05:13:35.547Z,51.32
2019-03-15T05:16:05.050Z,51.67
2019-03-15T05:18:34.816Z,47.76
2019-03-15T05:21:04.500Z,50.04
2019-03-15T05:23:34.951Z,48.90
2019-03-15T05:26:04.881Z,49.56
2019-03-15T05:28:34.889Z,47.91
2019-03-15T05:31:04.827Z,48.30
2019-03-15T05:33:35.075Z,47.54
2019-03-15T05:36:05.229Z,45.83
2019-03-15T05:38:35.286Z,47.42
2019-03-15T05:41:05.376Z,47.57
2019-03-15T05:43:36.271Z,49.05
2019-03-15T05:46:06.038Z,48.12
2019-03-15T05:48:36.474Z,47.47
2019-03-15T05:51:06.976Z,48.37
2019-03-15T05:53:37.440Z,47.59
2019-03-15T05:56:07.483Z,48.28
2019-03-15T05:58:37.389Z,47.18
2019-03-15T06:01:09.292Z,46.10
2019-03-15T06:03:48.543Z,46.51
2019-03-15T06:06:10.657Z,47.29
2019-03-15T06:08:43.128Z,47.08
2019-03-15T06:11:14.245Z,47.31
2019-03-15T06:13:44.498Z,48.10
2019-03-15T06:16:15.586Z,47.96
2019-03-15T06:18:48.176Z,45.54
2019-03-15T06:21:18.342Z,48.25
2019-03-15T06:23:51.303Z,49.68
2019-03-15T06:26:21.806Z,48.04
2019-03-15T06:28:52.162Z,48.56
2019-03-15T06:31:22.702Z,46.20
2019-03-15T06:33:53.286Z,46.81
2019-03-15T06:36:24.467Z,48.24
2019-03-15T06:38:54.953Z,48.19
2019-03-15T06:41:24.906Z,46.96
2019-03-15T06:43:55.805Z,49.53
2019-03-15T06:46:26.245Z,49.74
2019-03-15T06:48:56.573Z,47.04
2019-03-15T06:51:29.681Z,49.25
2019-03-15T06:54:10.912Z,48.10
2019-03-15T06:56:31.970Z,46.91
2019-03-15T06:59:02.569Z,47.16
2019-03-15T07:01:34.088Z,48.25
2019-03-15T07:04:04.471Z,47.37
2019-03-15T07:06:35.459Z,47.70
2019-03-15T07:09:07.276Z,46.30
2019-03-15T07:11:37.509Z,45.12
2019-03-15T07:14:08.004Z,44.17
2019-03-15T07:19:25.657Z,47.04
2019-03-15T07:21:47.024Z,45.01
2019-03-15T07:24:25.084Z,45.87
2019-03-15T07:26:50.226Z,47.46
2019-03-15T07:29:21.479Z,48.55
2019-03-15T07:31:53.916Z,47.99
2019-03-15T07:34:23.951Z,49.63
2019-03-15T07:36:55.356Z,50.60
2019-03-15T07:39:29.229Z,50.52
2019-03-15T07:41:59.936Z,50.17
2019-03-15T07:44:32.995Z,49.15
2019-03-15T07:47:03.294Z,49.08
2019-03-15T07:49:35.379Z,47.45
2019-03-15T07:52:06.011Z,48.35
2019-03-15T07:54:38.199Z,44.04
2019-03-15T07:57:07.152Z,44.48
2019-03-15T07:59:37.608Z,42.93
2019-03-15T08:02:08.548Z,43.76
2019-03-15T08:04:38.910Z,45.61
2019-03-15T08:07:10.070Z,44.42
2019-03-15T08:09:40.758Z,44.11
2019-03-15T08:12:11.718Z,43.88
2019-03-15T08:14:46.063Z,41.68
2019-03-15T08:17:16.749Z,43.54
2019-03-15T08:19:47.176Z,43.54
2019-03-15T08:22:20.530Z,44.93
2019-03-15T08:24:51.959Z,45.36
2019-03-15T08:27:23.398Z,46.52
2019-03-15T08:29:53.949Z,46.51
2019-03-15T08:32:24.957Z,47.11
2019-03-15T08:34:55.527Z,47.74
2019-03-15T08:37:28.939Z,48.07
2019-03-15T08:39:59.440Z,48.08
2019-03-15T08:42:30.065Z,47.81
2019-03-15T08:45:00.456Z,48.58
2019-03-15T08:47:31.121Z,49.08
2019-03-15T08:50:02.633Z,48.60
2019-03-15T08:52:32.610Z,48.88
2019-03-15T08:55:05.396Z,49.10
2019-03-15T08:57:35.644Z,49.11
2019-03-15T09:00:06.031Z,49.63
2019-03-15T09:02:38.127Z,49.13
2019-03-15T09:05:09.585Z,50.52
2019-03-15T09:07:41.541Z,50.30
2019-03-15T09:10:22.625Z,50.36
2019-03-15T09:12:44.828Z,51.47
2019-03-15T09:15:15.631Z,51.82
2019-03-15T09:17:48.930Z,51.43
2019-03-15T09:20:18.947Z,49.35
2019-03-15T09:22:48.932Z,49.34
2019-03-15T09:25:21.088Z,49.09
2019-03-15T09:27:53.890Z,50.02
2019-03-15T09:30:24.695Z,50.21
2019-03-15T09:32:57.274Z,48.29
2019-03-15T09:35:34.294Z,49.45
2019-03-15T09:38:05.203Z,49.13
2019-03-15T09:40:38.301Z,48.22
2019-03-15T09:43:09.552Z,48.42
2019-03-15T09:45:41.793Z,46.79
2019-03-15T09:48:12.765Z,44.74
2019-03-15T09:50:51.084Z,46.73
2019-03-15T09:53:16.125Z,48.32
2019-03-15T09:55:49.451Z,46.24
2019-03-15T09:58:20.070Z,48.34
2019-03-15T10:00:51.759Z,47.70
2019-03-15T10:03:22.709Z,46.60
2019-03-15T10:05:52.596Z,46.41
2019-03-15T10:08:23.720Z,47.63
2019-03-15T10:10:53.735Z,46.83
2019-03-15T10:13:24.561Z,48.24
2019-03-15T10:15:55.827Z,48.61
2019-03-15T10:18:26.231Z,49.17
2019-03-15T10:20:56.952Z,48.84
2019-03-15T10:23:26.993Z,52.39
2019-03-15T10:25:57.454Z,52.14
2019-03-15T10:28:27.761Z,51.39
2019-03-15T10:30:58.167Z,51.09
2019-03-15T10:33:28.614Z,51.95
2019-03-15T10:35:59.341Z,52.91
2019-03-15T10:38:29.752Z,51.90
2019-03-15T10:41:01.209Z,50.91
2019-03-15T10:43:31.855Z,49.66
2019-03-15T10:46:05.894Z,50.13
2019-03-15T10:48:35.873Z,50.01
2019-03-15T10:51:06.209Z,50.54
2019-03-15T10:53:36.643Z,50.27
2019-03-15T10:56:07.304Z,50.79
2019-03-15T10:58:37.723Z,51.57
2019-03-15T11:01:08.843Z,53.16
2019-03-15T11:03:38.838Z,53.64
2019-03-15T11:06:09.918Z,54.82
2019-03-15T11:08:39.656Z,55.01
2019-03-15T11:11:09.421Z,55.79
2019-03-15T11:13:39.532Z,56.60
2019-03-15T11:16:09.911Z,56.29
2019-03-15T11:18:40.099Z,56.30
2019-03-15T11:21:10.253Z,57.08
2019-03-15T11:23:39.942Z,58.42
2019-03-15T11:26:13.885Z,58.98
2019-03-15T11:28:41.279Z,59.53
2019-03-15T11:31:11.758Z,60.30
2019-03-15T11:33:47.262Z,61.50
2019-03-15T11:36:15.613Z,62.13
2019-03-15T11:38:46.139Z,61.96
2019-03-15T11:41:18.113Z,63.14
2019-03-15T11:43:49.932Z,63.47
2019-03-15T11:46:21.902Z,64.83
2019-03-15T11:48:52.425Z,65.72
2019-03-15T11:51:22.494Z,66.23
2019-03-15T11:53:55.362Z,67.12
2019-03-15T11:56:27.179Z,67.78
2019-03-15T11:58:59.942Z,67.12
2019-03-15T12:01:30.046Z,66.39
2019-03-15T12:04:00.229Z,65.35
2019-03-15T12:06:30.131Z,65.49
2019-03-15T12:09:01.388Z,66.79
2019-03-15T12:11:32.580Z,66.90
2019-03-15T12:14:02.838Z,67.37
2019-03-15T12:16:33.643Z,68.67
2019-03-15T12:19:04.474Z,69.31
2019-03-15T12:21:35.446Z,69.21
2019-03-15T12:26:51.206Z,69.03
2019-03-15T12:29:21.047Z,69.43
2019-03-15T12:31:51.218Z,69.54
2019-03-15T12:34:21.215Z,70.09
2019-03-15T12:36:50.561Z,67.55
2019-03-15T12:39:20.825Z,66.44
2019-03-15T12:41:51.597Z,66.20
2019-03-15T12:44:21.861Z,64.40
2019-03-15T12:46:52.556Z,62.77
2019-03-15T12:49:25.495Z,64.23
2019-03-15T12:51:53.536Z,67.08
2019-03-15T12:54:23.274Z,70.28
2019-03-15T12:56:55.198Z,72.48
2019-03-15T12:59:25.382Z,73.57
2019-03-15T13:01:55.657Z,73.59
2019-03-15T13:04:25.303Z,73.76
2019-03-15T13:06:54.854Z,73.28
2019-03-15T13:09:24.321Z,72.79
2019-03-15T13:11:53.960Z,72.92
2019-03-15T13:14:24.239Z,72.61
2019-03-15T13:16:53.742Z,72.29
2019-03-15T13:19:23.562Z,72.44
2019-03-15T13:21:53.313Z,71.94
2019-03-15T13:24:23.195Z,72.49
2019-03-15T13:27:02.700Z,71.72
2019-03-15T13:29:24.053Z,71.41
2019-03-15T13:31:54.879Z,70.66
2019-03-15T13:34:24.911Z,70.58
2019-03-15T13:36:55.772Z,69.53
2019-03-15T13:39:35.409Z,69.54
2019-03-15T13:42:06.196Z,68.96
2019-03-15T13:47:09.115Z,65.77
2019-03-15T13:49:39.694Z,66.39
2019-03-15T13:52:10.073Z,65.17
2019-03-15T13:54:41.156Z,65.99
2019-03-15T13:57:21.160Z,64.77
2019-03-15T13:59:44.230Z,65.12
2019-03-15T14:02:13.876Z,64.86
2019-03-15T14:04:46.303Z,64.58
2019-03-15T14:07:19.762Z,63.87
2019-03-15T14:09:57.179Z,64.24
2019-03-15T14:12:28.282Z,62.29
2019-03-15T14:14:58.752Z,61.40
2019-03-15T14:17:30.179Z,61.17
2019-03-15T14:20:01.735Z,61.17
2019-03-15T14:22:32.576Z,61.53
2019-03-15T14:25:02.949Z,61.57
2019-03-15T14:27:37.277Z,62.42
2019-03-15T14:30:04.995Z,61.72
2019-03-15T14:32:38.461Z,63.48
2019-03-15T14:35:09.328Z,64.37
2019-03-15T14:37:40.360Z,62.41
2019-03-15T14:40:13.749Z,63.51
2019-03-15T14:42:43.660Z,64.54
2019-03-15T14:45:15.852Z,62.00
2019-03-15T14:47:45.690Z,63.36
2019-03-15T14:50:15.131Z,64.53
2019-03-15T14:52:44.896Z,64.32
2019-03-15T14:55:15.887Z,64.12
2019-03-15T14:57:52.647Z,66.24
2019-03-15T15:00:16.698Z,66.32
2019-03-15T15:02:46.465Z,65.96
2019-03-15T15:05:16.313Z,66.97
2019-03-15T15:07:46.350Z,68.05
2019-03-15T15:10:16.388Z,71.74
2019-03-15T15:12:46.508Z,71.15
2019-03-15T15:15:16.214Z,67.28
2019-03-15T16:04:26.975Z,66.18
2019-03-15T16:07:07.170Z,67.31
2019-03-15T16:09:48.203Z,68.05
2019-03-15T16:12:28.646Z,69.70
2019-03-15T16:15:09.182Z,70.04
2019-03-15T16:17:49.781Z,70.07
2019-03-15T16:20:30.443Z,71.38
2019-03-15T16:23:10.455Z,71.37
2019-03-15T16:25:51.392Z,71.35
2019-03-15T16:28:34.541Z,71.37
2019-03-15T16:31:12.698Z,71.60
2019-03-15T16:33:53.400Z,71.72
2019-03-15T16:36:34.590Z,73.06
2019-03-15T16:39:15.632Z,72.80
2019-03-15T16:41:56.535Z,73.57
2019-03-15T16:44:37.793Z,73.89
2019-03-15T16:47:19.151Z,73.99
2019-03-15T16:50:00.508Z,74.10
2019-03-15T16:52:41.653Z,73.73
2019-03-15T16:55:22.592Z,74.20
2019-03-15T16:58:03.589Z,74.17
2019-03-15T17:00:45.098Z,73.99
2019-03-15T17:03:26.439Z,73.03
2019-03-15T17:06:07.746Z,72.84
2019-03-15T17:08:48.700Z,72.64
2019-03-15T17:11:30.023Z,72.29
2019-03-15T17:14:24.732Z,72.27
2019-03-15T17:16:54.267Z,72.01
2019-03-15T17:19:34.894Z,70.46
2019-03-15T17:22:15.631Z,70.09
2019-03-15T17:24:55.952Z,69.36
2019-03-15T17:27:36.418Z,69.29
2019-03-15T17:30:17.891Z,69.04
2019-03-15T17:32:58.656Z,70.16
2019-03-15T17:35:39.256Z,70.36
2019-03-15T17:38:20.105Z,71.34
2019-03-15T17:41:01.402Z,72.21
2019-03-15T17:43:42.477Z,72.57
2019-03-15T17:46:24.336Z,73.61
2019-03-15T17:49:05.478Z,75.69
2019-03-15T17:51:46.960Z,76.45
2019-03-15T17:54:27.796Z,76.52
2019-03-15T17:57:09.062Z,77.12
2019-03-15T17:59:50.320Z,77.21
2019-03-15T18:02:31.450Z,77.61
2019-03-15T18:05:12.277Z,77.53
2019-03-15T18:07:53.598Z,77.93
2019-03-15T18:10:34.555Z,78.50
2019-03-15T18:13:15.396Z,79.35
2019-03-15T18:15:56.881Z,79.58
2019-03-15T18:18:37.742Z,79.99
2019-03-15T18:21:18.379Z,80.92
2019-03-15T18:23:59.080Z,81.03
2019-03-15T18:26:39.965Z,81.47
2019-03-15T18:29:26.187Z,80.79
2019-03-15T18:32:02.744Z,80.63
2019-03-15T18:34:43.452Z,80.48
2019-03-15T18:37:23.880Z,80.78
2019-03-15T18:40:04.641Z,79.73
2019-03-15T18:42:45.131Z,79.86
2019-03-15T18:45:25.216Z,80.57
2019-03-15T18:48:05.603Z,81.06
2019-03-15T18:50:46.984Z,80.74
2019-03-15T18:53:28.143Z,80.13
2019-03-15T18:56:09.226Z,80.20
2019-03-15T18:58:50.542Z,80.50
2019-03-15T19:01:31.182Z,80.69
2019-03-15T19:04:11.852Z,81.75
2019-03-15T19:06:52.360Z,81.72
2019-03-15T19:09:32.827Z,81.75
2019-03-15T19:12:13.530Z,82.32
2019-03-15T19:14:54.093Z,83.31
2019-03-15T19:17:34.642Z,84.75
2019-03-15T19:20:15.027Z,85.02
2019-03-15T19:22:55.336Z,85.33
2019-03-15T19:25:35.745Z,85.17
2019-03-15T19:28:16.315Z,85.28
2019-03-15T19:30:56.438Z,85.28
2019-03-15T19:33:36.811Z,84.94
2019-03-15T19:36:17.398Z,85.27
2019-03-15T19:38:57.978Z,84.39
2019-03-15T19:41:38.891Z,83.70
2019-03-15T19:44:19.207Z,83.19
2019-03-15T19:46:59.533Z,83.98
2019-03-15T19:49:39.965Z,84.90
2019-03-15T19:52:20.146Z,84.64
2019-03-15T19:55:01.062Z,84.30
2019-03-15T19:57:41.634Z,84.90
2019-03-15T20:00:22.175Z,85.04
2019-03-15T20:03:02.593Z,85.64
2019-03-15T20:05:43.022Z,86.71
2019-03-15T20:08:23.925Z,87.97
2019-03-15T20:11:04.407Z,86.50
2019-03-15T20:13:44.731Z,86.58
2019-03-15T20:16:25.391Z,86.87
2019-03-15T20:19:05.772Z,86.82
2019-03-15T20:21:46.573Z,86.49
2019-03-15T20:24:27.152Z,86.73
2019-03-15T20:27:07.441Z,85.52
2019-03-15T20:29:48.187Z,85.65
2019-03-15T20:32:29.090Z,86.83
2019-03-15T20:35:09.548Z,87.86
2019-03-15T20:37:49.811Z,87.31
2019-03-15T20:40:30.854Z,87.54
2019-03-15T20:43:11.132Z,86.52
2019-03-15T20:45:51.725Z,86.32
2019-03-15T20:48:32.924Z,84.59
2019-03-15T20:51:14.000Z,83.55
2019-03-15T20:53:54.814Z,83.25
2019-03-15T20:56:35.374Z,81.65
2019-03-15T20:59:16.765Z,79.56
2019-03-15T21:01:57.465Z,80.69
2019-03-15T21:04:38.114Z,82.21
2019-03-15T21:07:18.407Z,80.86
2019-03-15T21:09:59.363Z,81.82
2019-03-15T21:12:39.998Z,83.05
2019-03-15T21:15:21.607Z,83.45
2019-03-15T21:18:02.637Z,82.75
2019-03-15T21:20:43.545Z,84.59
2019-03-15T21:23:24.500Z,84.25
2019-03-15T21:26:05.201Z,84.86
2019-03-15T21:28:46.096Z,85.78
2019-03-15T21:31:26.759Z,85.42
2019-03-15T21:34:07.898Z,85.53
2019-03-15T21:36:48.966Z,86.10
2019-03-15T21:39:29.643Z,86.81
2019-03-15T21:42:09.938Z,87.33
2019-03-15T21:44:50.250Z,87.01
2019-03-15T21:47:31.054Z,86.44
2019-03-15T21:50:12.452Z,86.45
2019-03-15T21:52:53.773Z,86.31
2019-03-15T21:55:34.749Z,86.68
2019-03-15T21:58:15.690Z,85.69
2019-03-15T22:01:02.155Z,86.17
2019-03-15T22:03:38.255Z,85.69
2019-03-15T22:06:19.306Z,85.67
2019-03-15T22:09:00.491Z,85.70
2019-03-15T22:11:41.340Z,85.71
2019-03-15T22:14:22.092Z,86.17
2019-03-15T22:17:03.102Z,85.85
2019-03-15T22:19:43.780Z,86.28
2019-03-15T22:22:24.669Z,86.11
2019-03-15T22:25:05.279Z,85.70
2019-03-15T22:27:49.800Z,86.17
2019-03-15T22:30:27.600Z,86.64
2019-03-15T22:33:08.170Z,86.40
2019-03-15T22:35:48.559Z,87.63
2019-03-15T22:38:29.498Z,87.37
2019-03-15T22:41:10.441Z,87.00
2019-03-15T22:43:51.062Z,86.95
2019-03-15T22:46:32.116Z,86.92
2019-03-15T22:49:12.533Z,87.16
2019-03-15T22:51:53.081Z,87.47
2019-03-15T22:54:33.663Z,88.25
2019-03-15T22:57:13.729Z,87.87
2019-03-15T22:59:54.222Z,87.87
2019-03-15T23:02:34.531Z,87.75
2019-03-15T23:05:14.939Z,87.99
2019-03-15T23:07:55.034Z,87.87
2019-03-15T23:10:35.657Z,87.86
2019-03-15T23:13:15.977Z,87.78
2019-03-15T23:15:56.521Z,87.88
2019-03-15T23:18:37.097Z,88.26
2019-03-15T23:21:17.692Z,88.74
2019-03-15T23:23:58.031Z,88.67
2019-03-15T23:26:38.596Z,87.93
